createdAt,value
2017-10-23T00:00:24.103Z,0
2017-10-23T00:01:04.665Z,0
2017-10-23T00:01:45.196Z,0
2017-10-23T00:02:25.713Z,0
2017-10-23T00:03:06.270Z,0
2017-10-23T00:03:46.876Z,0
2017-10-23T00:04:27.375Z,0
2017-10-23T00:05:07.922Z,0
2017-10-23T00:05:48.463Z,0
2017-10-23T00:06:29.078Z,0
2017-10-23T00:07:09.566Z,0
2017-10-23T00:07:50.102Z,0
2017-10-23T00:08:30.675Z,0
2017-10-23T00:09:11.221Z,0
2017-10-23T00:09:51.814Z,0
2017-10-23T00:10:32.381Z,0
2017-10-23T00:11:12.944Z,0
2017-10-23T00:11:53.513Z,0
2017-10-23T00:12:34.111Z,0
2017-10-23T00:13:14.999Z,0
2017-10-23T00:13:55.519Z,0
2017-10-23T00:14:36.051Z,0
2017-10-23T00:15:16.586Z,0
2017-10-23T00:15:57.173Z,0
2017-10-23T00:16:37.685Z,0
2017-10-23T00:17:18.198Z,0
2017-10-23T00:17:58.749Z,0
2017-10-23T00:18:39.295Z,0
2017-10-23T00:19:19.850Z,0
2017-10-23T00:20:00.405Z,0
2017-10-23T00:20:40.913Z,0
2017-10-23T00:21:21.477Z,0
2017-10-23T00:22:02.051Z,0
2017-10-23T00:22:42.551Z,0
2017-10-23T00:23:23.136Z,0
2017-10-23T00:24:03.658Z,0
2017-10-23T00:24:44.189Z,0
2017-10-23T00:25:24.771Z,0
2017-10-23T00:26:05.245Z,0
2017-10-23T00:26:45.804Z,0
2017-10-23T00:27:26.306Z,0
2017-10-23T00:28:06.897Z,0
2017-10-23T00:28:47.413Z,0
2017-10-23T00:29:27.914Z,0
2017-10-23T00:30:08.485Z,0
2017-10-23T00:30:49.013Z,0
2017-10-23T00:31:29.628Z,0
2017-10-23T00:32:10.163Z,0
2017-10-23T00:32:50.752Z,0
2017-10-23T00:33:31.276Z,0
2017-10-23T00:34:11.760Z,0
2017-10-23T00:34:52.452Z,0
2017-10-23T00:35:32.944Z,0
2017-10-23T00:36:13.525Z,0
2017-10-23T00:36:54.056Z,0
2017-10-23T00:37:34.585Z,0
2017-10-23T00:38:15.085Z,0
2017-10-23T00:38:55.605Z,0
2017-10-23T00:39:36.151Z,0
2017-10-23T00:40:16.680Z,0
2017-10-23T00:40:57.251Z,0
2017-10-23T00:41:37.822Z,0
2017-10-23T00:42:18.449Z,0
2017-10-23T00:42:59.014Z,0
2017-10-23T00:43:39.529Z,0
2017-10-23T00:44:20.101Z,0
2017-10-23T00:45:00.622Z,0
2017-10-23T00:45:41.192Z,0
2017-10-23T00:46:21.857Z,0
2017-10-23T00:47:02.215Z,0
2017-10-23T00:47:42.749Z,0
2017-10-23T00:48:23.341Z,0
2017-10-23T00:49:03.983Z,0
2017-10-23T00:49:44.527Z,0
2017-10-23T00:50:25.020Z,0
2017-10-23T00:51:05.555Z,0
2017-10-23T00:51:46.086Z,0
2017-10-23T00:52:26.736Z,0
2017-10-23T00:53:07.239Z,0
2017-10-23T00:53:47.875Z,0
2017-10-23T00:54:28.506Z,0
2017-10-23T00:55:09.648Z,0
2017-10-23T00:55:50.698Z,0
2017-10-23T00:56:30.683Z,0
2017-10-23T00:57:11.196Z,0
2017-10-23T00:57:52.695Z,0
2017-10-23T00:58:32.307Z,0
2017-10-23T00:59:12.884Z,0
2017-10-23T00:59:53.524Z,0
2017-10-23T01:00:33.975Z,0
2017-10-23T01:01:15.205Z,0
2017-10-23T01:01:55.129Z,0
2017-10-23T01:02:35.722Z,0
2017-10-23T01:03:16.262Z,0
2017-10-23T01:03:56.786Z,0
2017-10-23T01:04:37.380Z,0
2017-10-23T01:05:17.848Z,0
2017-10-23T01:05:58.523Z,0
2017-10-23T01:06:39.706Z,0
2017-10-23T01:07:19.607Z,0
2017-10-23T01:08:00.102Z,0
2017-10-23T01:08:40.779Z,0
2017-10-23T01:09:21.340Z,0
2017-10-23T01:10:02.112Z,0
2017-10-23T01:10:43.320Z,0
2017-10-23T01:11:23.861Z,0
2017-10-23T01:12:04.416Z,0
2017-10-23T01:12:44.959Z,0
2017-10-23T01:13:25.491Z,0
2017-10-23T01:14:06.069Z,0
2017-10-23T01:14:46.629Z,0
2017-10-23T01:15:27.207Z,0
2017-10-23T01:16:07.753Z,0
2017-10-23T01:16:48.391Z,0
2017-10-23T01:17:28.808Z,0
2017-10-23T01:18:09.376Z,0
2017-10-23T01:18:50.942Z,0
2017-10-23T01:19:31.468Z,0
2017-10-23T01:20:11.988Z,0
2017-10-23T01:20:52.628Z,0
2017-10-23T01:21:33.093Z,0
2017-10-23T01:22:13.809Z,0
2017-10-23T01:22:54.144Z,0
2017-10-23T01:23:34.742Z,0
2017-10-23T01:24:15.277Z,0
2017-10-23T01:24:56.731Z,0
2017-10-23T01:25:37.299Z,0
2017-10-23T01:26:17.965Z,0
2017-10-23T01:26:58.492Z,0
2017-10-23T01:27:39.225Z,0
2017-10-23T01:28:19.812Z,0
2017-10-23T01:29:00.343Z,0
2017-10-23T01:29:40.932Z,0
2017-10-23T01:30:21.463Z,0
2017-10-23T01:31:02.046Z,0
2017-10-23T01:31:42.679Z,0
2017-10-23T01:32:23.292Z,0
2017-10-23T01:33:03.860Z,0
2017-10-23T01:33:44.361Z,0
2017-10-23T01:34:24.876Z,0
2017-10-23T01:35:05.419Z,0
2017-10-23T01:35:45.974Z,0
2017-10-23T01:36:26.509Z,0
2017-10-23T01:37:07.197Z,0
2017-10-23T01:37:47.724Z,0
2017-10-23T01:38:28.292Z,0
2017-10-23T01:39:08.843Z,0
2017-10-23T01:39:49.384Z,0
2017-10-23T01:40:29.951Z,0
2017-10-23T01:41:10.662Z,0
2017-10-23T01:41:51.150Z,0
2017-10-23T01:42:31.852Z,0
2017-10-23T01:43:12.321Z,0
2017-10-23T01:43:52.828Z,0
2017-10-23T01:44:33.434Z,0
2017-10-23T01:45:13.903Z,0
2017-10-23T01:45:54.595Z,0
2017-10-23T01:46:35.091Z,0
2017-10-23T01:47:15.560Z,0
2017-10-23T01:47:56.099Z,0
2017-10-23T01:48:36.790Z,0
2017-10-23T01:49:17.337Z,0
2017-10-23T01:49:57.938Z,0
2017-10-23T01:50:38.435Z,0
2017-10-23T01:51:18.959Z,0
2017-10-23T01:51:59.598Z,0
2017-10-23T01:52:40.196Z,0
2017-10-23T01:53:20.723Z,0
2017-10-23T01:54:01.225Z,0
2017-10-23T01:54:41.811Z,0
2017-10-23T01:55:22.297Z,0
2017-10-23T01:56:02.937Z,0
2017-10-23T01:56:43.697Z,0
2017-10-23T01:57:24.108Z,0
2017-10-23T01:58:04.645Z,0
2017-10-23T01:58:45.273Z,0
2017-10-23T01:59:25.835Z,0
2017-10-23T02:00:06.418Z,0
2017-10-23T02:00:47.002Z,0
2017-10-23T02:01:27.656Z,0
2017-10-23T02:02:08.261Z,0
2017-10-23T02:02:48.870Z,0
2017-10-23T02:03:29.435Z,0
2017-10-23T02:04:09.957Z,0
2017-10-23T02:04:50.476Z,0
2017-10-23T02:05:31.014Z,0
2017-10-23T02:06:11.555Z,0
2017-10-23T02:06:52.172Z,0
2017-10-23T02:07:32.751Z,0
2017-10-23T02:08:13.283Z,0
2017-10-23T02:08:53.776Z,0
2017-10-23T02:09:34.314Z,0
2017-10-23T02:10:14.847Z,0
2017-10-23T02:10:55.371Z,0
2017-10-23T02:11:35.913Z,0
2017-10-23T02:12:16.499Z,0
2017-10-23T02:12:56.999Z,0
2017-10-23T02:13:37.617Z,0
2017-10-23T02:14:18.173Z,0
2017-10-23T02:14:58.676Z,0
2017-10-23T02:15:39.205Z,0
2017-10-23T02:16:19.707Z,0
2017-10-23T02:17:00.228Z,0
2017-10-23T02:17:40.745Z,0
2017-10-23T02:18:21.353Z,0
2017-10-23T02:19:01.844Z,0
2017-10-23T02:19:42.374Z,0
2017-10-23T02:20:23.031Z,0
2017-10-23T02:21:03.582Z,0
2017-10-23T02:21:44.088Z,0
2017-10-23T02:22:24.589Z,0
2017-10-23T02:23:05.169Z,0
2017-10-23T02:23:45.706Z,0
2017-10-23T02:24:26.258Z,0
2017-10-23T02:25:06.766Z,0
2017-10-23T02:25:47.296Z,0
2017-10-23T02:26:27.886Z,0
2017-10-23T02:27:08.342Z,0
2017-10-23T02:27:48.897Z,0
2017-10-23T02:28:29.409Z,0
2017-10-23T02:29:09.945Z,0
2017-10-23T02:29:50.467Z,0
2017-10-23T02:30:31.011Z,0
2017-10-23T02:31:11.521Z,0
2017-10-23T02:31:52.079Z,0
2017-10-23T02:32:32.664Z,0
2017-10-23T02:33:13.212Z,0
2017-10-23T02:33:53.733Z,0
2017-10-23T02:34:34.205Z,0
2017-10-23T02:35:14.763Z,0
2017-10-23T02:35:55.338Z,0
2017-10-23T02:36:35.818Z,0
2017-10-23T02:37:16.384Z,0
2017-10-23T02:37:56.953Z,0
2017-10-23T02:38:37.507Z,0
2017-10-23T02:39:18.003Z,0
2017-10-23T02:39:58.645Z,0
2017-10-23T02:40:39.157Z,0
2017-10-23T02:41:19.696Z,0
2017-10-23T02:42:00.226Z,0
2017-10-23T02:42:40.715Z,0
2017-10-23T02:43:21.246Z,0
2017-10-23T02:44:01.806Z,0
2017-10-23T02:44:42.299Z,0
2017-10-23T02:45:22.886Z,0
2017-10-23T02:46:03.434Z,0
2017-10-23T02:46:44.057Z,0
2017-10-23T02:47:24.571Z,0
2017-10-23T02:48:05.169Z,0
2017-10-23T02:48:45.670Z,0
2017-10-23T02:49:26.291Z,0
2017-10-23T02:50:06.841Z,0
2017-10-23T02:50:47.333Z,0
2017-10-23T02:51:27.870Z,0
2017-10-23T02:52:08.454Z,0
2017-10-23T02:52:49.070Z,0
2017-10-23T02:53:29.619Z,0
2017-10-23T02:54:10.174Z,0
2017-10-23T02:54:50.745Z,0
2017-10-23T02:55:31.240Z,0
2017-10-23T02:56:11.810Z,0
2017-10-23T02:56:53.178Z,0
2017-10-23T02:57:33.765Z,0
2017-10-23T02:58:14.351Z,0
2017-10-23T02:58:54.818Z,0
2017-10-23T02:59:35.382Z,0
2017-10-23T03:00:16.017Z,0
2017-10-23T03:00:56.468Z,0
2017-10-23T03:01:36.999Z,0
2017-10-23T03:02:17.589Z,0
2017-10-23T03:02:58.106Z,0
2017-10-23T03:03:38.637Z,0
2017-10-23T03:04:19.169Z,0
2017-10-23T03:04:59.883Z,0
2017-10-23T03:05:40.347Z,0
2017-10-23T03:06:22.079Z,0
2017-10-23T03:07:02.627Z,0
2017-10-23T03:07:43.168Z,0
2017-10-23T03:08:23.746Z,0
2017-10-23T03:09:04.283Z,0
2017-10-23T03:09:44.807Z,0
2017-10-23T03:10:26.262Z,0
2017-10-23T03:11:06.015Z,0
2017-10-23T03:11:46.420Z,0
2017-10-23T03:12:26.936Z,0
2017-10-23T03:13:07.595Z,0
2017-10-23T03:13:48.103Z,0
2017-10-23T03:14:28.679Z,0
2017-10-23T03:15:09.236Z,0
2017-10-23T03:15:49.775Z,0
2017-10-23T03:16:30.353Z,0
2017-10-23T03:17:10.963Z,0
2017-10-23T03:17:51.492Z,0
2017-10-23T03:18:31.996Z,0
2017-10-23T03:19:12.552Z,0
2017-10-23T03:19:53.970Z,0
2017-10-23T03:20:34.470Z,0
2017-10-23T03:21:15.519Z,0
2017-10-23T03:21:56.040Z,0
2017-10-23T03:22:36.576Z,0
2017-10-23T03:23:17.118Z,0
2017-10-23T03:23:57.751Z,0
2017-10-23T03:24:39.769Z,0
2017-10-23T03:25:19.473Z,0
2017-10-23T03:26:00.778Z,0
2017-10-23T03:26:42.958Z,0
2017-10-23T03:27:24.199Z,0
2017-10-23T03:28:05.268Z,0
2017-10-23T03:28:45.241Z,0
2017-10-23T03:29:27.265Z,0
2017-10-23T03:30:07.378Z,0
2017-10-23T03:30:47.956Z,0
2017-10-23T03:31:29.276Z,0
2017-10-23T03:32:09.872Z,0
2017-10-23T03:32:50.627Z,0
2017-10-23T03:33:31.090Z,0
2017-10-23T03:34:11.628Z,0
2017-10-23T03:34:53.405Z,0
2017-10-23T03:35:33.988Z,0
2017-10-23T03:36:14.500Z,0
2017-10-23T03:36:55.984Z,0
2017-10-23T03:37:37.772Z,0
2017-10-23T03:38:17.662Z,0
2017-10-23T03:38:58.220Z,0
2017-10-23T03:39:38.788Z,0
2017-10-23T03:40:19.339Z,0
2017-10-23T03:41:01.780Z,0
2017-10-23T03:41:44.800Z,0
2017-10-23T03:42:26.181Z,0
2017-10-23T03:43:06.785Z,0
2017-10-23T03:43:48.774Z,0
2017-10-23T03:44:29.772Z,0
2017-10-23T03:45:09.836Z,0
2017-10-23T03:45:50.317Z,0
2017-10-23T03:46:33.274Z,0
2017-10-23T03:47:14.279Z,0
2017-10-23T03:47:54.780Z,0
2017-10-23T03:48:35.507Z,0
2017-10-23T03:49:16.056Z,0
2017-10-23T03:49:57.280Z,0
2017-10-23T03:50:37.918Z,0
2017-10-23T03:51:20.275Z,0
2017-10-23T03:52:01.298Z,0
2017-10-23T03:52:41.840Z,0
2017-10-23T03:53:23.278Z,0
2017-10-23T03:54:03.466Z,0
2017-10-23T03:54:45.786Z,0
2017-10-23T03:55:26.053Z,0
2017-10-23T03:56:07.774Z,0
2017-10-23T03:56:49.341Z,0
2017-10-23T03:57:29.782Z,0
2017-10-23T03:58:09.525Z,0
2017-10-23T03:58:50.778Z,0
2017-10-23T03:59:31.289Z,0
2017-10-23T04:00:11.972Z,0
2017-10-23T04:00:52.542Z,0
2017-10-23T04:01:32.965Z,0
2017-10-23T04:02:13.479Z,0
2017-10-23T04:02:53.978Z,0
2017-10-23T04:03:34.529Z,0
2017-10-23T04:04:15.077Z,0
2017-10-23T04:04:55.578Z,0
2017-10-23T04:05:36.172Z,0
2017-10-23T04:06:16.662Z,0
2017-10-23T04:06:57.231Z,0
2017-10-23T04:07:37.798Z,0
2017-10-23T04:08:18.307Z,0
2017-10-23T04:08:58.775Z,0
2017-10-23T04:09:39.293Z,0
2017-10-23T04:10:19.863Z,0
2017-10-23T04:11:00.414Z,0
2017-10-23T04:11:40.939Z,0
2017-10-23T04:12:21.483Z,0
2017-10-23T04:13:02.008Z,0
2017-10-23T04:13:42.559Z,0
2017-10-23T04:14:23.135Z,0
2017-10-23T04:15:03.603Z,0
2017-10-23T04:15:44.209Z,0
2017-10-23T04:16:24.729Z,0
2017-10-23T04:17:05.330Z,0
2017-10-23T04:17:45.924Z,0
2017-10-23T04:18:26.484Z,0
2017-10-23T04:19:07.106Z,0
2017-10-23T04:19:47.568Z,0
2017-10-23T04:20:28.243Z,0
2017-10-23T04:21:08.787Z,0
2017-10-23T04:21:49.355Z,0
2017-10-23T04:22:29.976Z,0
2017-10-23T04:23:11.280Z,0
2017-10-23T04:23:51.022Z,0
2017-10-23T04:24:31.566Z,0
2017-10-23T04:25:12.138Z,0
2017-10-23T04:25:52.681Z,0
2017-10-23T04:26:33.333Z,0
2017-10-23T04:27:13.805Z,0
2017-10-23T04:27:54.285Z,0
2017-10-23T04:28:34.785Z,0
2017-10-23T04:29:15.342Z,0
2017-10-23T04:29:55.845Z,0
2017-10-23T04:30:36.397Z,0
2017-10-23T04:31:16.950Z,0
2017-10-23T04:31:57.530Z,0
2017-10-23T04:32:38.052Z,0
2017-10-23T04:33:18.659Z,0
2017-10-23T04:33:59.147Z,0
2017-10-23T04:34:39.665Z,0
2017-10-23T04:35:20.232Z,0
2017-10-23T04:36:00.687Z,0
2017-10-23T04:36:41.335Z,0
2017-10-23T04:37:21.871Z,0
2017-10-23T04:38:02.417Z,0
2017-10-23T04:38:42.952Z,0
2017-10-23T04:39:23.514Z,0
2017-10-23T04:40:04.044Z,0
2017-10-23T04:40:44.572Z,0
2017-10-23T04:41:25.135Z,0
2017-10-23T04:42:05.643Z,0
2017-10-23T04:42:46.124Z,0
2017-10-23T04:43:26.714Z,0
2017-10-23T04:44:07.256Z,0
2017-10-23T04:44:47.779Z,0
2017-10-23T04:45:28.301Z,0
2017-10-23T04:46:08.833Z,0
2017-10-23T04:46:49.366Z,0
2017-10-23T04:47:29.972Z,0
2017-10-23T04:48:11.319Z,0
2017-10-23T04:48:51.015Z,0
2017-10-23T04:49:31.542Z,0
2017-10-23T04:50:12.045Z,0
2017-10-23T04:50:52.617Z,0
2017-10-23T04:51:33.214Z,0
2017-10-23T04:52:13.737Z,0
2017-10-23T04:52:54.275Z,0
2017-10-23T04:53:34.766Z,0
2017-10-23T04:54:15.422Z,0
2017-10-23T04:54:55.888Z,0
2017-10-23T04:55:36.432Z,0
2017-10-23T04:56:16.902Z,0
2017-10-23T04:56:57.512Z,0
2017-10-23T04:57:37.991Z,0
2017-10-23T04:58:18.543Z,0
2017-10-23T04:58:59.150Z,0
2017-10-23T04:59:39.662Z,0
2017-10-23T05:00:20.210Z,0
2017-10-23T05:01:00.668Z,0
2017-10-23T05:01:41.195Z,0
2017-10-23T05:02:21.765Z,0
2017-10-23T05:03:02.287Z,0
2017-10-23T05:03:42.789Z,0
2017-10-23T05:04:23.302Z,0
2017-10-23T05:05:03.855Z,0
2017-10-23T05:05:44.497Z,0
2017-10-23T05:06:24.908Z,0
2017-10-23T05:07:05.432Z,0
2017-10-23T05:07:45.980Z,0
2017-10-23T05:08:26.585Z,0
2017-10-23T05:09:07.098Z,0
2017-10-23T05:09:47.657Z,0
2017-10-23T05:10:28.214Z,0
2017-10-23T05:11:08.744Z,0
2017-10-23T05:11:49.285Z,0
2017-10-23T05:12:29.823Z,0
2017-10-23T05:13:10.403Z,0
2017-10-23T05:13:50.938Z,0
2017-10-23T05:14:31.471Z,0
2017-10-23T05:15:12.027Z,0
2017-10-23T05:15:52.603Z,0
2017-10-23T05:16:33.127Z,0
2017-10-23T05:17:13.656Z,0
2017-10-23T05:17:54.178Z,0
2017-10-23T05:18:34.705Z,0
2017-10-23T05:19:15.242Z,0
2017-10-23T05:19:55.765Z,0
2017-10-23T05:20:36.329Z,0
2017-10-23T05:21:16.894Z,0
2017-10-23T05:21:57.398Z,0
2017-10-23T05:22:37.968Z,0
2017-10-23T05:26:27.682Z,0
2017-10-23T05:27:08.189Z,0
2017-10-23T05:27:48.784Z,0
2017-10-23T05:28:29.403Z,0
2017-10-23T05:29:09.957Z,0
2017-10-23T05:29:50.523Z,0
2017-10-23T05:30:31.066Z,0
2017-10-23T05:31:11.619Z,0
2017-10-23T05:31:52.153Z,0
2017-10-23T05:32:32.683Z,0
2017-10-23T05:33:13.190Z,0
2017-10-23T05:33:53.728Z,0
2017-10-23T05:34:34.297Z,0
2017-10-23T05:35:14.810Z,0
2017-10-23T05:35:55.328Z,0
2017-10-23T05:36:35.930Z,0
2017-10-23T05:37:16.433Z,0
2017-10-23T05:37:56.986Z,0
2017-10-23T05:38:37.550Z,0
2017-10-23T05:39:18.085Z,0
2017-10-23T05:39:58.602Z,0
2017-10-23T05:40:39.137Z,0
2017-10-23T05:41:19.690Z,0
2017-10-23T05:42:00.235Z,0
2017-10-23T05:42:40.741Z,0
2017-10-23T05:43:21.273Z,0
2017-10-23T05:44:01.796Z,0
2017-10-23T05:44:42.317Z,0
2017-10-23T05:45:22.875Z,0
2017-10-23T05:46:03.422Z,0
2017-10-23T05:46:43.974Z,0
2017-10-23T05:47:24.525Z,0
2017-10-23T05:48:05.022Z,0
2017-10-23T05:48:45.584Z,0
2017-10-23T05:49:26.146Z,0
2017-10-23T05:50:06.702Z,0
2017-10-23T05:50:47.216Z,0
2017-10-23T05:51:27.738Z,0
2017-10-23T05:52:08.311Z,0
2017-10-23T05:52:48.868Z,0
2017-10-23T05:53:29.430Z,0
2017-10-23T05:54:09.992Z,0
2017-10-23T05:54:50.534Z,0
2017-10-23T05:55:31.053Z,0
2017-10-23T05:56:11.593Z,0
2017-10-23T05:56:52.114Z,0
2017-10-23T05:57:32.674Z,0
2017-10-23T05:58:13.212Z,0
2017-10-23T05:58:53.769Z,0
2017-10-23T05:59:34.220Z,0
2017-10-23T06:00:14.792Z,0
2017-10-23T06:00:55.340Z,0
2017-10-23T06:01:35.806Z,0
2017-10-23T06:02:16.369Z,0
2017-10-23T06:02:56.905Z,0
2017-10-23T06:03:37.770Z,0
2017-10-23T06:04:18.268Z,0
2017-10-23T06:04:58.903Z,0
2017-10-23T06:05:39.379Z,0
2017-10-23T06:06:20.058Z,0
2017-10-23T06:07:00.586Z,0
2017-10-23T06:07:41.771Z,0
2017-10-23T06:08:22.510Z,0
2017-10-23T06:09:03.254Z,0
2017-10-23T06:09:45.317Z,0
2017-10-23T06:10:27.658Z,0
2017-10-23T06:11:08.161Z,0
2017-10-23T06:11:48.768Z,0
2017-10-23T06:12:29.317Z,5
2017-10-23T06:13:09.847Z,5
2017-10-23T06:13:50.726Z,5
2017-10-23T06:14:32.659Z,5
2017-10-23T06:15:12.341Z,5
2017-10-23T06:15:52.936Z,5
2017-10-23T06:16:33.473Z,5
2017-10-23T06:17:13.995Z,5
2017-10-23T06:17:54.567Z,5
2017-10-23T06:18:35.126Z,5
2017-10-23T06:19:15.695Z,5
2017-10-23T06:19:56.265Z,5
2017-10-23T06:20:37.635Z,5
2017-10-23T06:21:18.680Z,5
2017-10-23T06:22:04.662Z,5
2017-10-23T06:22:45.311Z,5
2017-10-23T06:23:25.814Z,5
2017-10-23T06:24:07.008Z,5
2017-10-23T06:24:48.211Z,5
2017-10-23T06:25:29.160Z,5
2017-10-23T06:26:09.697Z,5
2017-10-23T06:26:51.163Z,5
2017-10-23T06:27:30.881Z,5
2017-10-23T06:28:12.228Z,5
2017-10-23T06:28:53.682Z,5
2017-10-23T06:29:33.386Z,5
2017-10-23T06:30:13.915Z,5
2017-10-23T06:30:55.165Z,5
2017-10-23T06:31:35.684Z,5
2017-10-23T06:32:16.235Z,10
2017-10-23T06:32:57.325Z,10
2017-10-23T06:33:37.860Z,10
2017-10-23T06:34:19.666Z,10
2017-10-23T06:34:59.595Z,10
2017-10-23T06:35:40.140Z,15
2017-10-23T06:36:21.167Z,15
2017-10-23T06:37:01.252Z,20
2017-10-23T06:37:41.839Z,20
2017-10-23T06:38:22.460Z,20
2017-10-23T06:39:04.633Z,25
2017-10-23T06:39:45.157Z,25
2017-10-23T06:40:26.167Z,25
2017-10-23T06:41:06.821Z,30
2017-10-23T06:41:48.171Z,30
2017-10-23T06:42:28.680Z,35
2017-10-23T06:43:11.165Z,35
2017-10-23T06:43:51.671Z,35
2017-10-23T06:44:32.163Z,30
2017-10-23T06:45:12.451Z,30
2017-10-23T06:45:53.004Z,30
2017-10-23T06:46:34.184Z,30
2017-10-23T06:47:14.190Z,30
2017-10-23T06:47:55.621Z,30
2017-10-23T06:48:37.171Z,35
2017-10-23T06:49:17.712Z,35
2017-10-23T06:49:58.674Z,35
2017-10-23T06:50:39.174Z,35
2017-10-23T06:51:21.912Z,35
2017-10-23T06:52:04.179Z,40
2017-10-23T06:52:44.105Z,40
2017-10-23T06:53:25.282Z,45
2017-10-23T06:54:05.827Z,50
2017-10-23T06:54:46.428Z,55
2017-10-23T06:55:28.170Z,55
2017-10-23T06:56:07.487Z,50
2017-10-23T06:56:49.169Z,40
2017-10-23T06:57:28.509Z,35
2017-10-23T06:58:09.919Z,30
2017-10-23T06:58:51.465Z,30
2017-10-23T06:59:31.971Z,25
2017-10-23T07:00:13.175Z,25
2017-10-23T07:00:53.066Z,25
2017-10-23T07:01:33.583Z,20
2017-10-23T07:02:14.878Z,20
2017-10-23T07:02:55.491Z,15
2017-10-23T07:03:36.716Z,15
2017-10-23T07:04:17.014Z,15
2017-10-23T07:04:58.175Z,20
2017-10-23T07:05:38.926Z,20
2017-10-23T07:06:19.478Z,15
2017-10-23T07:06:59.935Z,15
2017-10-23T07:07:40.477Z,15
2017-10-23T07:08:22.675Z,20
2017-10-23T07:09:02.464Z,20
2017-10-23T07:09:42.993Z,25
2017-10-23T07:10:24.186Z,30
2017-10-23T07:11:04.535Z,35
2017-10-23T07:11:47.176Z,35
2017-10-23T07:12:27.066Z,35
2017-10-23T07:13:08.183Z,30
2017-10-23T07:13:52.174Z,30
2017-10-23T07:14:32.179Z,30
2017-10-23T07:15:13.730Z,25
2017-10-23T07:15:54.694Z,20
2017-10-23T07:16:35.180Z,20
2017-10-23T07:17:15.695Z,25
2017-10-23T07:17:57.236Z,25
2017-10-23T07:18:37.790Z,30
2017-10-23T07:19:19.204Z,30
2017-10-23T07:19:59.728Z,40
2017-10-23T07:20:40.263Z,45
2017-10-23T07:21:20.825Z,55
2017-10-23T07:22:01.395Z,60
2017-10-23T07:22:42.703Z,60
2017-10-23T07:23:23.260Z,70
2017-10-23T07:24:04.310Z,70
2017-10-23T07:24:44.905Z,85
2017-10-23T07:25:25.425Z,85
2017-10-23T07:26:06.005Z,90
2017-10-23T07:26:48.685Z,90
2017-10-23T07:27:28.366Z,90
2017-10-23T07:28:08.921Z,85
2017-10-23T07:28:50.208Z,80
2017-10-23T07:29:31.694Z,85
2017-10-23T07:30:12.219Z,85
2017-10-23T07:30:53.680Z,80
2017-10-23T07:31:33.264Z,70
2017-10-23T07:32:14.910Z,70
2017-10-23T07:32:56.100Z,70
2017-10-23T07:33:37.535Z,70
2017-10-23T07:34:21.191Z,75
2017-10-23T07:35:01.686Z,80
2017-10-23T07:35:43.694Z,90
2017-10-23T07:36:24.187Z,90
2017-10-23T07:37:04.724Z,90
2017-10-23T07:37:45.809Z,80
2017-10-23T07:38:27.203Z,70
2017-10-23T07:39:06.880Z,70
2017-10-23T07:39:49.682Z,70
2017-10-23T07:40:29.697Z,70
2017-10-23T07:41:10.685Z,75
2017-10-23T07:41:52.848Z,80
2017-10-23T07:42:35.688Z,80
2017-10-23T07:43:15.932Z,80
2017-10-23T07:43:57.188Z,85
2017-10-23T07:44:37.017Z,85
2017-10-23T07:45:18.715Z,85
2017-10-23T07:46:00.199Z,90
2017-10-23T07:46:42.192Z,100
2017-10-23T07:47:22.704Z,105
2017-10-23T07:48:02.559Z,105
2017-10-23T07:48:43.919Z,105
2017-10-23T07:49:25.183Z,110
2017-10-23T07:50:05.726Z,105
2017-10-23T07:50:47.706Z,105
2017-10-23T07:51:29.060Z,100
2017-10-23T07:52:10.685Z,95
2017-10-23T07:52:50.976Z,95
2017-10-23T07:53:32.041Z,90
2017-10-23T07:54:13.184Z,85
2017-10-23T07:54:53.692Z,90
2017-10-23T07:55:38.203Z,80
2017-10-23T07:56:19.568Z,75
2017-10-23T07:57:00.692Z,80
2017-10-23T07:57:42.226Z,75
2017-10-23T07:58:23.709Z,75
2017-10-23T07:59:04.206Z,75
2017-10-23T07:59:45.445Z,80
2017-10-23T08:00:27.200Z,80
2017-10-23T08:01:07.534Z,85
2017-10-23T08:01:50.200Z,85
2017-10-23T08:02:30.195Z,95
2017-10-23T08:03:10.713Z,100
2017-10-23T08:03:57.699Z,105
2017-10-23T08:04:37.383Z,100
2017-10-23T08:05:19.690Z,100
2017-10-23T08:05:59.710Z,100
2017-10-23T08:06:40.201Z,105
2017-10-23T08:07:21.205Z,110
2017-10-23T08:08:01.109Z,115
2017-10-23T08:08:42.335Z,125
2017-10-23T08:09:22.724Z,125
2017-10-23T08:10:03.282Z,130
2017-10-23T08:10:45.206Z,125
2017-10-23T08:11:25.156Z,125
2017-10-23T08:12:05.681Z,110
2017-10-23T08:12:47.208Z,95
2017-10-23T08:13:28.711Z,70
2017-10-23T08:14:09.696Z,60
2017-10-23T08:14:50.193Z,50
2017-10-23T08:15:29.977Z,45
2017-10-23T08:16:10.615Z,40
2017-10-23T08:16:53.263Z,35
2017-10-23T08:17:34.302Z,35
2017-10-23T08:18:17.196Z,35
2017-10-23T08:18:57.868Z,35
2017-10-23T08:19:39.198Z,40
2017-10-23T08:20:20.697Z,50
2017-10-23T08:21:05.713Z,55
2017-10-23T08:21:46.697Z,55
2017-10-23T08:22:26.224Z,55
2017-10-23T08:23:06.873Z,55
2017-10-23T08:23:49.708Z,55
2017-10-23T08:24:29.518Z,60
2017-10-23T08:25:10.714Z,55
2017-10-23T08:25:51.212Z,55
2017-10-23T08:26:33.204Z,55
2017-10-23T08:27:15.266Z,60
2017-10-23T08:27:57.871Z,60
2017-10-23T08:28:38.479Z,65
2017-10-23T08:29:18.990Z,65
2017-10-23T08:30:00.644Z,70
2017-10-23T08:30:45.207Z,80
2017-10-23T08:31:25.707Z,80
2017-10-23T08:32:07.211Z,80
2017-10-23T08:32:47.818Z,80
2017-10-23T08:33:29.015Z,75
2017-10-23T08:34:10.798Z,75
2017-10-23T08:34:53.112Z,75
2017-10-23T08:35:34.706Z,85
2017-10-23T08:36:17.202Z,95
2017-10-23T08:36:57.922Z,100
2017-10-23T08:37:40.708Z,95
2017-10-23T08:38:22.237Z,95
2017-10-23T08:39:04.207Z,110
2017-10-23T08:39:44.617Z,115
2017-10-23T08:40:28.208Z,115
2017-10-23T08:41:09.299Z,115
2017-10-23T08:41:49.634Z,110
2017-10-23T08:42:31.208Z,105
2017-10-23T08:43:14.207Z,95
2017-10-23T08:43:56.094Z,95
2017-10-23T08:44:37.204Z,90
2017-10-23T08:45:20.711Z,85
2017-10-23T08:46:02.356Z,85
2017-10-23T08:46:44.217Z,85
2017-10-23T08:47:25.709Z,80
2017-10-23T08:48:06.212Z,80
2017-10-23T08:48:47.149Z,75
2017-10-23T08:49:30.214Z,75
2017-10-23T08:50:09.996Z,70
2017-10-23T08:50:51.278Z,65
2017-10-23T08:51:33.403Z,65
2017-10-23T08:52:13.944Z,65
2017-10-23T08:52:55.217Z,70
2017-10-23T08:53:37.712Z,75
2017-10-23T08:54:18.709Z,75
2017-10-23T08:54:57.900Z,75
2017-10-23T08:55:39.708Z,75
2017-10-23T08:56:20.894Z,75
2017-10-23T08:57:03.234Z,75
2017-10-23T08:57:44.656Z,80
2017-10-23T08:58:26.271Z,85
2017-10-23T08:59:09.400Z,100
2017-10-23T08:59:51.227Z,110
2017-10-23T09:00:33.837Z,110
2017-10-23T09:01:15.725Z,115
2017-10-23T09:01:55.549Z,115
2017-10-23T09:02:39.730Z,120
2017-10-23T09:03:20.723Z,120
2017-10-23T09:04:00.866Z,115
2017-10-23T09:04:42.248Z,115
2017-10-23T09:05:22.711Z,115
2017-10-23T09:06:03.243Z,115
2017-10-23T09:06:43.800Z,110
2017-10-23T09:07:25.212Z,110
2017-10-23T09:08:04.959Z,105
2017-10-23T09:08:46.387Z,110
2017-10-23T09:09:28.238Z,110
2017-10-23T09:10:10.036Z,115
2017-10-23T09:10:51.232Z,115
2017-10-23T09:11:32.253Z,115
2017-10-23T09:12:16.215Z,115
2017-10-23T09:12:55.717Z,115
2017-10-23T09:13:37.729Z,115
2017-10-23T09:14:19.715Z,115
2017-10-23T09:15:00.231Z,115
2017-10-23T09:15:42.815Z,115
2017-10-23T09:16:24.737Z,120
2017-10-23T09:17:05.471Z,110
2017-10-23T09:17:46.823Z,115
2017-10-23T09:18:29.222Z,115
2017-10-23T09:19:08.849Z,110
2017-10-23T09:19:49.349Z,115
2017-10-23T09:20:30.725Z,110
2017-10-23T09:21:11.727Z,105
2017-10-23T09:21:55.722Z,105
2017-10-23T09:22:35.775Z,110
2017-10-23T09:23:17.134Z,110
2017-10-23T09:23:57.674Z,110
2017-10-23T09:24:38.300Z,110
2017-10-23T09:25:18.857Z,110
2017-10-23T09:26:01.223Z,115
2017-10-23T09:26:41.038Z,115
2017-10-23T09:27:22.910Z,115
2017-10-23T09:28:04.527Z,115
2017-10-23T09:28:45.730Z,115
2017-10-23T09:29:25.660Z,115
2017-10-23T09:30:06.773Z,115
2017-10-23T09:30:47.727Z,115
2017-10-23T09:31:29.225Z,115
2017-10-23T09:32:09.023Z,120
2017-10-23T09:32:49.713Z,120
2017-10-23T09:33:30.392Z,120
2017-10-23T09:34:11.101Z,125
2017-10-23T09:34:51.933Z,125
2017-10-23T09:35:32.535Z,125
2017-10-23T09:36:13.288Z,125
2017-10-23T09:36:53.810Z,125
2017-10-23T09:37:34.299Z,125
2017-10-23T09:38:14.909Z,125
2017-10-23T09:38:55.424Z,125
2017-10-23T09:39:36.011Z,125
2017-10-23T09:40:16.559Z,120
2017-10-23T09:40:57.113Z,120
2017-10-23T09:41:37.724Z,120
2017-10-23T09:42:18.269Z,120
2017-10-23T09:42:58.880Z,120
2017-10-23T09:43:39.368Z,120
2017-10-23T09:44:19.892Z,125
2017-10-23T09:45:00.465Z,130
2017-10-23T09:45:41.043Z,130
2017-10-23T09:46:21.587Z,135
2017-10-23T09:47:02.143Z,135
2017-10-23T09:47:42.706Z,135
2017-10-23T09:48:23.250Z,135
2017-10-23T09:49:03.755Z,135
2017-10-23T09:49:44.370Z,135
2017-10-23T09:50:24.952Z,135
2017-10-23T09:51:05.530Z,130
2017-10-23T09:51:46.123Z,125
2017-10-23T09:52:26.606Z,115
2017-10-23T09:53:07.155Z,115
2017-10-23T09:53:47.667Z,120
2017-10-23T09:54:28.188Z,115
2017-10-23T09:55:08.755Z,120
2017-10-23T09:55:49.253Z,120
2017-10-23T09:56:29.812Z,120